Time;durP1;ratioP1;P1;durP2;ratioP2;P2;SDS_P1;SDS_P2;PMS_P1;PMS_P2;Temp;Humidity;BMP_temperature;BMP_pressure;BME280_temperature;BME280_humidity;BME280_pressure;Samples;Min_cycle;Max_cycle;Signal;HPM_P1;HPM_P2
2022/11/14 00:00:52;;;;;;;;;;;9.60;70.00;;;4.80;100.00;95565.53;4974065;28;19917;-51
2022/11/14 00:03:25;;;;;;;;;;;9.70;70.00;;;4.78;100.00;95562.31;4990375;28;19967;-51
2022/11/14 00:05:54;;;;;;;;;;;9.70;70.00;;;4.78;100.00;95559.66;4990631;28;19957;-51
2022/11/14 00:08:24;;;;;;;;;;;9.60;69.90;;;4.76;100.00;95562.50;4972724;28;19936;-51
2022/11/14 00:10:50;;;;;;;;;;;9.70;70.00;;;4.76;100.00;95557.22;4973559;28;19909;-52
2022/11/14 00:13:19;;;;;;;;;;;9.60;69.90;;;4.81;100.00;95548.66;4990168;28;20193;-51
2022/11/14 00:15:53;;;;;;;;;;;9.60;70.00;;;4.81;100.00;95556.56;4973407;28;19998;-54
2022/11/14 00:18:19;;;;;;;;;;;9.70;70.10;;;4.82;100.00;95550.25;4989732;28;19916;-54
2022/11/14 00:21:03;;;;;;;;;;;9.70;70.20;;;4.81;100.00;95549.44;4968999;28;19914;-51
2022/11/14 00:23:28;;;;;;;;;;;9.60;70.10;;;4.78;100.00;95544.63;4971155;28;20280;-52
2022/11/14 00:25:54;;;;;;;;;;;9.60;70.10;;;4.82;100.00;95544.97;4956748;28;19913;-51
2022/11/14 00:28:20;;;;;;;;;;;9.60;70.10;;;4.80;100.00;95539.13;4990585;28;20311;-51
2022/11/14 00:30:47;;;;;;;;;;;9.60;70.20;;;4.73;100.00;95536.59;4972943;28;19913;-50
2022/11/14 00:33:13;;;;;;;;;;;9.60;70.20;;;4.77;100.00;95539.59;4971964;28;19909;-52
2022/11/14 00:35:55;;;;;;;;;;;9.60;70.20;;;4.80;100.00;95539.13;4990394;28;19936;-51
2022/11/14 00:38:22;;;;;;;;;;;9.60;70.30;;;4.81;100.00;95540.72;4982871;28;19913;-50
2022/11/14 00:40:56;;;;;;;;;;;9.60;70.40;;;4.75;100.00;95537.16;4990989;28;19909;-51
2022/11/14 00:43:25;;;;;;;;;;;9.60;70.40;;;4.71;100.00;95538.66;4971951;28;19913;-51
2022/11/14 00:45:51;;;;;;;;;;;9.60;70.40;;;4.72;100.00;95534.97;4990919;28;19963;-53
2022/11/14 00:51:05;;;;;;;;;;;9.60;70.50;;;4.82;100.00;95539.69;4994014;28;19963;-55
2022/11/14 00:53:38;;;;;;;;;;;9.60;70.50;;;4.83;100.00;95541.31;4992992;28;20337;-55
2022/11/14 00:56:04;;;;;;;;;;;9.60;70.60;;;4.81;100.00;95541.53;4973282;28;20373;-54
2022/11/14 00:58:30;;;;;;;;;;;9.60;70.60;;;4.83;100.00;95533.41;4975842;28;19916;-53
2022/11/14 01:00:59;;;;;;;;;;;9.60;70.60;;;4.84;100.00;95533.16;4957596;28;19909;-55
2022/11/14 01:03:24;;;;;;;;;;;9.60;70.60;;;4.84;100.00;95527.06;4992292;28;19917;-52
2022/11/14 01:05:50;;;;;;;;;;;9.60;70.60;;;4.87;100.00;95526.63;4993020;28;19968;-55
2022/11/14 01:08:19;;;;;;;;;;;9.60;70.60;;;4.84;100.00;95527.88;4993396;28;19913;-55
2022/11/14 01:10:49;;;;;;;;;;;9.60;70.60;;;4.86;100.00;95525.03;4993227;28;19921;-52
2022/11/14 01:13:20;;;;;;;;;;;9.70;70.70;;;4.86;100.00;95519.75;4975556;28;19971;-52
2022/11/14 01:15:48;;;;;;;;;;;9.70;70.70;;;4.87;100.00;95530.06;4994153;28;19913;-53
2022/11/14 01:18:20;;;;;;;;;;;9.70;70.70;;;4.90;100.00;95526.16;4977131;28;19913;-51
2022/11/14 01:20:47;;;;;;;;;;;9.70;70.70;;;4.95;100.00;95520.19;4991358;28;19967;-51
2022/11/14 01:23:15;;;;;;;;;;;9.70;70.70;;;4.95;100.00;95522.81;4993799;28;19987;-53
2022/11/14 01:25:44;;;;;;;;;;;9.70;70.70;;;4.93;100.00;95522.25;4993082;28;19910;-51
2022/11/14 01:28:18;;;;;;;;;;;9.70;70.70;;;4.97;100.00;95526.03;4977219;28;19914;-52
2022/11/14 01:30:47;;;;;;;;;;;9.70;70.70;;;4.91;100.00;95524.31;4976514;28;19960;-53
2022/11/14 01:33:13;;;;;;;;;;;9.70;70.70;;;4.88;100.00;95522.94;4971825;28;19952;-51
2022/11/14 01:35:38;;;;;;;;;;;9.80;70.70;;;4.86;100.00;95525.03;4987839;28;20151;-55
2022/11/14 01:38:07;;;;;;;;;;;9.80;70.60;;;4.85;100.00;95511.00;4975624;28;20004;-52
2022/11/14 01:40:33;;;;;;;;;;;9.80;70.60;;;4.73;100.00;95504.94;4993883;28;20012;-51
2022/11/14 01:43:17;;;;;;;;;;;9.70;70.40;;;4.74;100.00;95497.81;4994257;28;19952;-52
2022/11/14 01:46:17;;;;;;;;;;;9.70;70.40;;;4.59;100.00;95485.88;4989117;28;19924;-51
2022/11/14 01:48:48;;;;;;;;;;;9.70;70.30;;;4.60;100.00;95491.94;4983505;28;20012;-52
2022/11/14 01:51:37;;;;;;;;;;;9.60;70.30;;;4.61;100.00;95490.94;4993779;28;19917;-53
2022/11/14 01:54:12;;;;;;;;;;;9.60;70.30;;;4.56;100.00;95482.91;4975659;28;20355;-52
2022/11/14 01:56:46;;;;;;;;;;;9.50;70.30;;;4.57;100.00;95487.13;4988211;28;19920;-51
2022/11/14 01:59:22;;;;;;;;;;;9.50;70.40;;;4.55;100.00;95479.47;4973415;28;19924;-51
2022/11/14 02:01:53;;;;;;;;;;;9.50;70.30;;;4.56;100.00;95480.25;4991638;28;19909;-53
2022/11/14 02:04:54;;;;;;;;;;;9.50;70.40;;;4.49;100.00;95474.31;4975539;28;19952;-53
2022/11/14 02:07:28;;;;;;;;;;;9.50;70.40;;;4.52;100.00;95476.47;4975784;28;19916;-51
2022/11/14 02:10:05;;;;;;;;;;;9.40;70.40;;;4.49;100.00;95464.53;4976198;28;19914;-51
2022/11/14 02:12:32;;;;;;;;;;;9.40;70.40;;;4.46;100.00;95456.28;4975945;28;19960;-52
2022/11/14 02:15:01;;;;;;;;;;;9.40;70.40;;;4.44;100.00;95453.88;4991145;28;19913;-51
2022/11/14 02:17:27;;;;;;;;;;;9.40;70.40;;;4.36;100.00;95462.13;4992481;28;20311;-51
2022/11/14 02:20:17;;;;;;;;;;;9.40;70.50;;;4.32;100.00;95467.03;4991163;28;19917;-51
2022/11/14 02:22:43;;;;;;;;;;;9.40;70.40;;;4.34;100.00;95470.25;4992042;28;19941;-51
2022/11/14 02:25:13;;;;;;;;;;;9.30;70.40;;;4.33;100.00;95476.56;4991927;28;19956;-51
2022/11/14 02:27:41;;;;;;;;;;;9.30;70.40;;;4.29;100.00;95466.69;4992866;28;20356;-51
2022/11/14 02:30:21;;;;;;;;;;;9.30;70.40;;;4.28;100.00;95465.91;4992630;28;19948;-51
2022/11/14 02:32:47;;;;;;;;;;;9.20;70.40;;;4.24;100.00;95472.66;4974881;28;19933;-51
2022/11/14 02:35:19;;;;;;;;;;;9.20;70.40;;;4.19;100.00;95467.25;4991941;28;20419;-51
2022/11/14 02:37:48;;;;;;;;;;;9.20;70.40;;;4.15;100.00;95466.09;4992072;28;20008;-52
2022/11/14 02:40:27;;;;;;;;;;;9.20;70.40;;;4.06;100.00;95470.91;4971620;28;19916;-52
2022/11/14 02:42:59;;;;;;;;;;;9.10;70.30;;;4.10;100.00;95469.41;4986194;28;19909;-52
2022/11/14 02:45:25;;;;;;;;;;;9.10;70.40;;;4.16;100.00;95462.44;4971210;28;19914;-52
2022/11/14 02:47:54;;;;;;;;;;;9.10;70.50;;;4.15;100.00;95468.75;4988082;28;19918;-51
2022/11/14 02:50:20;;;;;;;;;;;9.10;70.50;;;4.13;100.00;95465.53;4973812;28;19999;-51
2022/11/14 02:52:45;;;;;;;;;;;9.10;70.60;;;4.09;100.00;95464.38;4974736;28;20366;-52
2022/11/14 02:55:11;;;;;;;;;;;9.00;70.50;;;4.06;100.00;95463.00;4972931;28;20004;-51
2022/11/14 02:57:37;;;;;;;;;;;9.00;70.50;;;4.06;100.00;95460.34;4975461;28;19922;-51
2022/11/14 03:00:05;;;;;;;;;;;9.00;70.50;;;4.07;100.00;95463.78;4970769;28;19910;-50
2022/11/14 03:02:31;;;;;;;;;;;9.00;70.50;;;4.07;100.00;95455.88;4989009;28;20331;-52
2022/11/14 03:04:56;;;;;;;;;;;9.00;70.60;;;3.99;100.00;95454.38;4991175;28;19910;-52
2022/11/14 03:07:28;;;;;;;;;;;9.00;70.50;;;4.03;100.00;95458.16;4990411;28;19916;-52
2022/11/14 03:09:57;;;;;;;;;;;9.00;70.60;;;4.05;100.00;95456.13;4991309;28;19913;-51
2022/11/14 03:12:22;;;;;;;;;;;9.00;70.60;;;4.00;100.00;95458.63;4991458;28;19917;-52
2022/11/14 03:14:51;;;;;;;;;;;9.00;70.60;;;4.04;100.00;95461.59;4992421;28;19909;-51
2022/11/14 03:17:17;;;;;;;;;;;9.00;70.60;;;4.02;100.00;95455.78;4991044;28;20322;-51
2022/11/14 03:19:43;;;;;;;;;;;9.00;70.60;;;3.99;100.00;95454.38;4989260;28;19913;-53
2022/11/14 03:22:14;;;;;;;;;;;9.00;70.70;;;3.96;100.00;95461.94;4990962;28;20386;-53
2022/11/14 03:24:46;;;;;;;;;;;8.90;70.60;;;4.02;100.00;95453.13;4973266;28;20139;-51
2022/11/14 03:27:15;;;;;;;;;;;8.90;70.70;;;4.07;100.00;95461.16;4969479;28;19910;-51
2022/11/14 03:29:41;;;;;;;;;;;8.90;70.80;;;4.07;100.00;95456.69;4975567;28;20192;-52
2022/11/14 03:32:07;;;;;;;;;;;8.90;70.90;;;4.11;100.00;95454.41;4989972;28;19909;-51
2022/11/14 03:34:33;;;;;;;;;;;8.90;70.90;;;4.11;100.00;95449.94;5018817;23;20407;-56
2022/11/14 03:36:59;;;;;;;;;;;8.90;71.00;;;4.15;100.00;95447.66;5011149;28;19913;-55
2022/11/14 03:39:34;;;;;;;;;;;9.00;71.00;;;4.16;100.00;95462.44;4989688;28;20356;-55
2022/11/14 03:42:00;;;;;;;;;;;9.00;71.00;;;4.16;100.00;95452.69;4999349;28;19909;-56
2022/11/14 03:44:26;;;;;;;;;;;9.00;71.00;;;4.18;100.00;95452.47;5009623;28;19917;-58
2022/11/14 03:46:54;;;;;;;;;;;9.10;71.00;;;4.16;100.00;95455.31;4993893;28;19920;-58
2022/11/14 03:49:23;;;;;;;;;;;9.10;70.90;;;4.22;100.00;95455.47;5008897;28;20683;-56
2022/11/14 03:51:51;;;;;;;;;;;9.10;70.90;;;4.22;100.00;95452.81;5002011;28;20272;-54
2022/11/14 03:54:17;;;;;;;;;;;9.10;70.90;;;4.22;100.00;95450.97;4972973;28;20004;-54
2022/11/14 03:56:43;;;;;;;;;;;9.20;70.90;;;4.22;100.00;95466.81;4992955;28;20502;-55
2022/11/14 03:59:11;;;;;;;;;;;9.20;70.90;;;4.23;100.00;95468.44;4990406;28;19909;-57
2022/11/14 04:01:40;;;;;;;;;;;9.20;70.90;;;4.25;100.00;95468.19;4993949;28;20364;-54
2022/11/14 04:04:06;;;;;;;;;;;9.20;70.80;;;4.26;100.00;95475.06;5009369;28;19948;-53
2022/11/14 04:06:31;;;;;;;;;;;9.20;70.80;;;4.24;100.00;95472.66;5010162;28;19974;-55
2022/11/14 04:09:00;;;;;;;;;;;9.20;70.70;;;4.23;100.00;95462.31;5005790;28;20332;-54
2022/11/14 04:11:26;;;;;;;;;;;9.20;70.70;;;4.15;100.00;95461.63;4990174;28;19940;-58
2022/11/14 04:13:52;;;;;;;;;;;9.20;70.80;;;4.21;100.00;95469.69;4977397;28;20300;-55
2022/11/14 04:16:17;;;;;;;;;;;9.20;70.80;;;4.24;100.00;95471.88;4989966;28;20004;-53
2022/11/14 04:18:49;;;;;;;;;;;9.20;70.70;;;4.25;100.00;95476.09;4993120;28;19945;-56
2022/11/14 04:21:18;;;;;;;;;;;9.20;70.80;;;4.27;100.00;95477.47;5008425;28;19913;-57
2022/11/14 04:23:44;;;;;;;;;;;9.20;70.80;;;4.26;100.00;95473.25;5015106;28;20344;-54
2022/11/14 04:26:12;;;;;;;;;;;9.10;70.70;;;4.29;100.00;95474.59;5011951;28;19995;-53
2022/11/14 04:28:41;;;;;;;;;;;9.20;70.80;;;4.18;100.00;95469.09;4983045;28;20392;-57
2022/11/14 04:31:09;;;;;;;;;;;9.20;70.70;;;4.17;100.00;95483.31;5027435;28;19909;-50
2022/11/14 04:33:41;;;;;;;;;;;9.20;70.80;;;4.08;100.00;95468.84;4998109;28;20260;-56
2022/11/14 04:36:12;;;;;;;;;;;9.10;70.70;;;4.07;100.00;95459.31;4981101;28;19917;-53
2022/11/14 04:38:38;;;;;;;;;;;9.10;70.80;;;4.20;100.00;95473.31;5022954;28;19913;-54
2022/11/14 04:41:04;;;;;;;;;;;9.10;70.90;;;4.27;100.00;95472.22;5016857;28;19909;-53
2022/11/14 04:43:30;;;;;;;;;;;9.00;70.90;;;4.29;100.00;95459.59;5018583;28;19913;-54
2022/11/14 04:46:02;;;;;;;;;;;9.10;71.10;;;4.33;100.00;95458.13;5036827;28;19931;-57
2022/11/14 04:48:27;;;;;;;;;;;9.10;71.10;;;4.35;100.00;95456.03;5002602;28;19920;-54
2022/11/14 04:50:53;;;;;;;;;;;9.10;71.10;;;4.40;100.00;95452.72;5035690;28;20294;-55
2022/11/14 04:53:22;;;;;;;;;;;9.20;71.20;;;4.40;100.00;95452.72;4999048;28;19936;-58
2022/11/14 04:55:47;;;;;;;;;;;9.20;71.20;;;4.45;100.00;95449.38;5014705;28;19913;-55
2022/11/14 04:58:13;;;;;;;;;;;9.20;71.20;;;4.47;100.00;95450.78;5016782;28;20271;-58
2022/11/14 05:00:45;;;;;;;;;;;9.30;71.20;;;4.51;100.00;95446.66;5015723;28;19909;-55
2022/11/14 05:03:11;;;;;;;;;;;9.30;71.20;;;4.54;100.00;95442.75;5017543;28;20383;-57
2022/11/14 05:05:36;;;;;;;;;;;9.40;71.20;;;4.55;100.00;95442.53;5036423;28;19909;-55
2022/11/14 05:08:02;;;;;;;;;;;9.40;71.20;;;4.61;100.00;95444.25;5035104;28;20358;-56
2022/11/14 05:10:31;;;;;;;;;;;9.40;71.90;;;4.66;100.00;95440.91;5019077;28;19913;-53
2022/11/14 05:13:04;;;;;;;;;;;9.50;71.20;;;4.68;100.00;95435.41;5035084;28;19916;-52
2022/11/14 05:15:32;;;;;;;;;;;9.50;71.20;;;4.70;100.00;95433.31;5020075;28;20371;-52
2022/11/14 05:18:01;;;;;;;;;;;9.50;71.20;;;4.73;100.00;95435.50;5015565;28;19915;-53
2022/11/14 05:20:27;;;;;;;;;;;9.50;71.10;;;4.77;100.00;95441.94;5031279;28;19943;-55
2022/11/14 05:22:55;;;;;;;;;;;9.50;71.20;;;4.80;100.00;95434.38;5026791;28;19908;-53
2022/11/14 05:25:32;;;;;;;;;;;9.60;71.20;;;4.84;100.00;95435.50;5035640;28;19919;-55
2022/11/14 05:28:01;;;;;;;;;;;9.60;71.20;;;4.84;100.00;95439.97;5035510;28;19916;-54
2022/11/14 05:30:30;;;;;;;;;;;9.60;71.20;;;4.82;100.00;95429.63;5034359;28;19909;-52
2022/11/14 05:32:55;;;;;;;;;;;9.60;71.20;;;4.88;100.00;95428.72;5023792;28;20436;-58
2022/11/14 05:35:21;;;;;;;;;;;9.60;71.20;;;4.90;100.00;95417.13;5011179;28;19960;-56
2022/11/14 05:37:56;;;;;;;;;;;9.70;71.30;;;4.94;100.00;95413.00;5015048;28;19909;-56
2022/11/14 05:40:28;;;;;;;;;;;9.70;71.30;;;4.97;100.00;95429.16;5015669;28;20062;-56
2022/11/14 05:43:00;;;;;;;;;;;9.70;71.30;;;5.00;100.00;95417.34;5015059;28;19957;-54
2022/11/14 05:45:25;;;;;;;;;;;9.80;71.30;;;5.01;100.00;95416.28;5014804;28;19966;-54
2022/11/14 05:47:54;;;;;;;;;;;9.80;71.30;;;5.02;100.00;95410.81;5015064;28;19917;-57
2022/11/14 05:50:23;;;;;;;;;;;9.80;71.30;;;5.05;100.00;95418.25;5032241;28;19917;-55
2022/11/14 05:52:52;;;;;;;;;;;9.80;71.30;;;5.08;100.00;95415.16;4998706;28;20326;-58
2022/11/14 05:55:17;;;;;;;;;;;9.80;71.30;;;5.09;100.00;95419.38;5030516;28;19909;-58
2022/11/14 05:57:46;;;;;;;;;;;9.90;71.40;;;5.11;100.00;95432.38;5019144;28;19908;-58
2022/11/14 06:00:15;;;;;;;;;;;9.90;71.30;;;5.09;100.00;95429.94;5032567;28;19913;-58
2022/11/14 06:02:41;;;;;;;;;;;9.90;71.30;;;5.13;100.00;95443.47;5010294;28;19948;-55
2022/11/14 06:05:07;;;;;;;;;;;9.90;71.20;;;5.17;100.00;95438.53;5012864;28;19948;-57
2022/11/14 06:07:33;;;;;;;;;;;9.90;71.20;;;5.15;100.00;95432.69;5013602;28;19916;-58
2022/11/14 06:10:05;;;;;;;;;;;10.00;71.30;;;5.09;100.00;95445.00;5014326;28;19915;-58
2022/11/14 06:12:31;;;;;;;;;;;10.00;71.20;;;5.09;100.00;95445.78;5032434;28;20366;-54
2022/11/14 06:14:57;;;;;;;;;;;10.00;71.20;;;5.07;100.00;95445.22;5013719;28;19936;-58
2022/11/14 06:17:25;;;;;;;;;;;10.00;71.30;;;5.06;100.00;95448.88;5014359;28;19989;-55
2022/11/14 06:19:57;;;;;;;;;;;10.00;71.30;;;5.05;100.00;95444.66;5010345;28;20334;-57
2022/11/14 06:22:25;;;;;;;;;;;10.00;71.30;;;5.14;100.00;95446.91;5017988;28;19909;-56
2022/11/14 06:24:51;;;;;;;;;;;10.00;71.30;;;5.16;100.00;95456.22;5009391;28;20007;-50
2022/11/14 06:27:17;;;;;;;;;;;10.00;71.30;;;5.24;100.00;95455.06;5011435;28;20011;-50
2022/11/14 06:29:43;;;;;;;;;;;10.00;71.40;;;5.30;100.00;95451.50;5013930;28;19909;-54
2022/11/14 06:32:08;;;;;;;;;;;10.00;71.40;;;5.33;100.00;95451.81;5024114;28;20287;-54
2022/11/14 06:34:34;;;;;;;;;;;10.00;71.40;;;5.34;100.00;95456.06;5010914;28;19959;-56
2022/11/14 06:37:04;;;;;;;;;;;10.10;71.40;;;5.39;100.00;95470.38;5010270;28;19936;-53
2022/11/14 06:39:29;;;;;;;;;;;10.10;71.60;;;5.43;100.00;95461.78;5007744;28;20311;-55
2022/11/14 06:41:55;;;;;;;;;;;10.10;71.30;;;5.42;100.00;95462.00;5028906;28;19970;-58
2022/11/14 06:44:27;;;;;;;;;;;10.20;71.40;;;5.44;100.00;95454.66;5028396;28;19919;-58
2022/11/14 06:47:05;;;;;;;;;;;10.20;71.30;;;5.43;100.00;95467.06;5013533;28;19959;-58
2022/11/14 06:49:30;;;;;;;;;;;10.20;71.20;;;5.44;100.00;95476.59;4994560;28;19923;-53
2022/11/14 06:51:56;;;;;;;;;;;10.20;71.20;;;5.45;100.00;95474.75;5009691;28;20449;-58
2022/11/14 06:54:22;;;;;;;;;;;10.30;71.30;;;5.47;100.00;95473.47;5009267;28;20435;-55
2022/11/14 06:56:47;;;;;;;;;;;10.30;71.20;;;5.49;100.00;95475.91;5028301;28;19917;-58
2022/11/14 06:59:16;;;;;;;;;;;10.30;71.20;;;5.52;100.00;95484.16;5029340;28;19908;-55
2022/11/14 07:01:48;;;;;;;;;;;10.30;71.20;;;5.53;100.00;95480.47;5012101;28;19913;-58
2022/11/14 07:04:17;;;;;;;;;;;10.40;71.20;;;5.55;100.00;95478.41;5029407;28;19960;-57
2022/11/14 07:06:42;;;;;;;;;;;10.40;71.10;;;5.57;100.00;95486.06;5030310;28;19940;-52
2022/11/14 07:09:10;;;;;;;;;;;10.40;71.10;;;5.61;100.00;95486.41;4996423;28;19951;-58
2022/11/14 07:11:36;;;;;;;;;;;10.40;71.20;;;5.64;100.00;95488.56;5029713;28;20056;-57
2022/11/14 07:14:03;;;;;;;;;;;10.40;71.20;;;5.67;100.00;95490.75;4998136;28;19913;-57
2022/11/14 07:16:34;;;;;;;;;;;10.40;71.20;;;5.70;100.00;95488.47;5021463;28;20290;-53
2022/11/14 07:19:03;;;;;;;;;;;10.40;71.30;;;5.74;100.00;95488.78;5006847;28;19913;-55
2022/11/14 07:21:32;;;;;;;;;;;10.50;72.20;;;5.73;100.00;95490.59;5008173;28;20286;-57
2022/11/14 07:23:58;;;;;;;;;;;10.40;71.20;;;5.77;100.00;95488.31;5024952;28;19913;-56
2022/11/14 07:26:24;;;;;;;;;;;10.40;71.30;;;5.79;100.00;95496.78;5020073;28;19913;-54
2022/11/14 07:28:50;;;;;;;;;;;10.50;71.30;;;5.77;100.00;95491.75;5026033;28;19923;-53
2022/11/14 07:31:19;;;;;;;;;;;10.50;71.30;;;5.75;100.00;95496.47;5026507;28;19917;-51
2022/11/14 07:33:46;;;;;;;;;;;10.50;71.30;;;5.78;100.00;95497.84;5030371;28;19916;-54
2022/11/14 07:36:14;;;;;;;;;;;10.50;71.30;;;5.76;100.00;95499.91;5018763;28;19917;-53
2022/11/14 07:38:41;;;;;;;;;;;10.50;71.30;;;5.77;100.00;95504.97;5012843;28;20279;-57
2022/11/14 07:41:14;;;;;;;;;;;10.50;71.30;;;5.79;100.00;95510.81;5013623;28;19916;-56
2022/11/14 07:43:41;;;;;;;;;;;10.50;71.30;;;5.81;100.00;95507.94;5029702;28;20003;-54
2022/11/14 07:46:14;;;;;;;;;;;10.50;71.30;;;5.82;100.00;95511.38;5005514;28;19919;-55
2022/11/14 07:48:40;;;;;;;;;;;10.50;71.30;;;5.85;100.00;95514.34;5012302;28;19916;-57
2022/11/14 07:51:12;;;;;;;;;;;10.50;71.30;;;5.90;100.00;95511.81;5022394;28;19955;-57
2022/11/14 07:53:38;;;;;;;;;;;10.50;71.40;;;5.92;100.00;95515.03;5024909;28;19909;-57
2022/11/14 07:56:10;;;;;;;;;;;10.60;71.60;;;5.95;100.00;95514.56;4995439;28;20367;-52
2022/11/14 07:58:40;;;;;;;;;;;10.60;71.60;;;6.03;100.00;95523.97;5012397;28;20340;-52
2022/11/14 08:01:12;;;;;;;;;;;10.60;71.70;;;6.09;100.00;95530.97;4995864;28;19913;-56
2022/11/14 08:03:38;;;;;;;;;;;10.70;71.70;;;6.12;100.00;95527.84;5004061;28;19912;-55
2022/11/14 08:06:09;;;;;;;;;;;10.70;71.70;;;6.16;100.00;95533.47;5028427;28;20055;-52
2022/11/14 08:08:36;;;;;;;;;;;10.80;71.60;;;6.16;100.00;95521.03;5028013;28;19920;-54
2022/11/14 08:11:03;;;;;;;;;;;10.80;71.60;;;6.20;100.00;95522.16;5028503;28;19909;-55
2022/11/14 08:13:30;;;;;;;;;;;10.80;71.60;;;6.27;100.00;95524.69;5025434;28;20671;-56
2022/11/14 08:15:56;;;;;;;;;;;10.90;71.60;;;6.31;100.00;95528.44;4990120;28;19915;-51
2022/11/14 08:18:22;;;;;;;;;;;11.00;71.70;;;6.38;100.00;95518.50;5022666;28;19913;-53
2022/11/14 08:20:48;;;;;;;;;;;11.00;71.60;;;6.41;100.00;95511.94;4995430;28;19999;-53
2022/11/14 08:23:14;;;;;;;;;;;11.10;71.70;;;6.55;100.00;95517.69;5030197;28;20054;-53
2022/11/14 08:25:40;;;;;;;;;;;11.20;71.70;;;6.66;100.00;95514.19;5029334;28;19909;-53
2022/11/14 08:28:07;;;;;;;;;;;11.20;71.60;;;6.75;100.00;95523.31;5012715;28;20046;-57
2022/11/14 08:30:34;;;;;;;;;;;11.30;71.60;;;6.81;100.00;95513.63;4996028;28;19975;-52
2022/11/14 08:33:09;;;;;;;;;;;11.40;71.60;;;6.91;100.00;95511.13;5011585;28;19944;-53
2022/11/14 08:35:47;;;;;;;;;;;11.50;71.60;;;6.98;100.00;95514.38;5012556;28;20011;-51
2022/11/14 08:38:15;;;;;;;;;;;11.60;71.60;;;7.04;100.00;95505.47;5027488;28;19915;-50
2022/11/14 08:40:41;;;;;;;;;;;11.60;71.50;;;7.11;100.00;95516.72;5030267;28;19913;-52
2022/11/14 08:43:10;;;;;;;;;;;11.70;71.50;;;7.21;100.00;95516.06;5030043;28;19958;-55
2022/11/14 08:45:44;;;;;;;;;;;11.80;71.40;;;7.22;100.00;95512.34;5028435;28;19924;-54
2022/11/14 08:48:10;;;;;;;;;;;11.90;71.30;;;7.28;100.00;95508.72;5010569;28;19913;-56
2022/11/14 08:50:36;;;;;;;;;;;11.90;71.20;;;7.36;100.00;95518.06;5011496;28;19932;-54
2022/11/14 08:53:02;;;;;;;;;;;12.00;71.10;;;7.34;100.00;95514.91;5011811;28;19909;-53
2022/11/14 08:55:30;;;;;;;;;;;12.10;71.10;;;7.45;100.00;95523.75;5027603;28;19919;-55
2022/11/14 08:57:56;;;;;;;;;;;12.10;71.10;;;7.49;100.00;95514.25;5012169;28;20338;-54
2022/11/14 09:00:31;;;;;;;;;;;12.20;71.00;;;7.54;100.00;95516.97;5009294;28;19909;-55
2022/11/14 09:02:56;;;;;;;;;;;12.20;70.90;;;7.55;100.00;95510.63;5011387;28;20280;-55
2022/11/14 09:05:28;;;;;;;;;;;12.20;70.80;;;7.56;100.00;95506.94;5028683;28;19916;-53
2022/11/14 09:07:58;;;;;;;;;;;12.30;70.70;;;7.54;100.00;95509.81;5029797;28;20393;-51
2022/11/14 09:10:24;;;;;;;;;;;12.30;70.60;;;7.66;100.00;95507.06;5032147;28;19917;-53
2022/11/14 09:13:01;;;;;;;;;;;12.40;70.60;;;7.68;100.00;95496.19;5028904;28;19916;-53
2022/11/14 09:15:28;;;;;;;;;;;12.40;70.50;;;7.70;98.53;95496.75;4997149;28;19956;-54
2022/11/14 09:17:55;;;;;;;;;;;12.50;70.50;;;7.84;99.05;95503.28;5028915;28;19919;-51
2022/11/14 09:20:25;;;;;;;;;;;12.60;70.60;;;7.93;99.21;95503.63;5018990;28;19916;-52
2022/11/14 09:22:52;;;;;;;;;;;12.60;70.60;;;7.95;98.38;95512.94;5012333;28;19979;-52
2022/11/14 09:25:19;;;;;;;;;;;12.60;70.50;;;7.98;98.44;95516.94;5012009;28;19913;-54
2022/11/14 09:27:45;;;;;;;;;;;12.60;70.40;;;7.98;98.09;95520.41;5001872;28;20257;-53
2022/11/14 09:30:12;;;;;;;;;;;12.60;70.40;;;7.96;96.86;95519.88;5020202;28;19908;-56
2022/11/14 09:32:44;;;;;;;;;;;12.70;70.50;;;8.03;97.78;95514.38;5019748;28;20278;-56
2022/11/14 09:35:11;;;;;;;;;;;12.60;70.40;;;8.05;97.37;95515.72;5030278;28;19920;-48
2022/11/14 09:37:38;;;;;;;;;;;12.60;70.40;;;8.08;97.48;95509.91;5015320;28;19917;-52
2022/11/14 09:40:05;;;;;;;;;;;12.70;70.40;;;8.13;98.61;95513.66;5017456;28;19908;-51
2022/11/14 09:43:07;;;;;;;;;;;12.70;70.40;;;8.04;97.47;95500.03;5015559;28;19952;-51
2022/11/14 09:45:41;;;;;;;;;;;12.70;70.30;;;8.11;97.78;95512.03;5022814;28;19955;-49
2022/11/14 09:48:17;;;;;;;;;;;12.70;70.30;;;8.16;98.22;95506.00;5013480;28;20372;-49
2022/11/14 09:51:18;;;;;;;;;;;12.80;70.30;;;8.20;97.48;95501.00;4999147;28;20405;-49
2022/11/14 09:54:02;;;;;;;;;;;12.80;70.20;;;8.27;97.26;95505.06;5006193;28;19909;-48
2022/11/14 09:56:28;;;;;;;;;;;12.80;70.20;;;8.27;94.98;95510.38;5015996;28;20407;-50
2022/11/14 09:58:56;;;;;;;;;;;12.90;70.20;;;8.36;95.83;95508.03;5032983;28;19934;-49
2022/11/14 10:01:56;;;;;;;;;;;13.00;70.10;;;8.41;96.47;95509.97;5014385;28;19943;-52
2022/11/14 10:05:12;;;;;;;;;;;13.10;70.00;;;8.50;96.48;95511.13;5014763;28;19919;-51
2022/11/14 10:07:44;;;;;;;;;;;13.20;70.00;;;8.54;95.99;95513.00;4970735;28;19952;-50
2022/11/14 10:10:52;;;;;;;;;;;13.30;69.90;;;8.61;97.99;95520.75;5019799;28;19958;-51
2022/11/14 10:13:48;;;;;;;;;;;13.40;69.80;;;8.66;98.11;95517.34;5022781;28;20363;-51
2022/11/14 10:17:14;;;;;;;;;;;13.50;69.70;;;8.75;98.39;95529.13;4995230;28;20397;-54
2022/11/14 10:20:17;;;;;;;;;;;13.60;69.50;;;8.70;97.78;95526.41;5021647;28;19909;-49
2022/11/14 10:22:46;;;;;;;;;;;13.70;69.20;;;8.80;98.06;95532.59;5015901;28;19936;-51
2022/11/14 10:25:27;;;;;;;;;;;13.90;69.10;;;8.89;98.41;95530.25;5031162;28;19915;-50
2022/11/14 10:28:19;;;;;;;;;;;13.90;68.90;;;8.94;98.89;95548.91;5003122;28;19920;-52
2022/11/14 10:31:43;;;;;;;;;;;14.00;68.80;;;8.97;100.00;95550.25;5004043;28;19909;-49
2022/11/14 10:34:41;;;;;;;;;;;14.10;68.80;;;9.08;100.00;95551.13;5012207;28;20003;-51
2022/11/14 10:37:25;;;;;;;;;;;14.10;68.90;;;9.12;100.00;95554.88;4996703;28;19929;-49
2022/11/14 10:39:55;;;;;;;;;;;14.10;68.90;;;9.15;100.00;95544.53;5008258;28;19913;-49
2022/11/14 10:42:38;;;;;;;;;;;14.10;68.90;;;9.14;100.00;95526.19;5010945;28;19931;-49
2022/11/14 10:45:17;;;;;;;;;;;14.10;68.90;;;9.05;99.05;95520.53;4997571;28;20359;-49
2022/11/14 10:47:59;;;;;;;;;;;14.00;68.80;;;9.05;98.89;95528.50;5014639;28;19917;-49
2022/11/14 10:51:13;;;;;;;;;;;14.00;68.80;;;9.03;98.72;95528.00;5014533;28;19920;-49
2022/11/14 10:53:47;;;;;;;;;;;13.90;68.70;;;8.98;96.11;95536.72;4954049;28;19909;-49
2022/11/14 10:56:13;;;;;;;;;;;13.90;68.80;;;9.05;96.23;95533.81;5001082;28;19909;-52
2022/11/14 10:58:43;;;;;;;;;;;13.90;68.90;;;9.02;98.21;95526.38;5012220;28;19931;-49
2022/11/14 11:01:38;;;;;;;;;;;13.90;69.00;;;9.09;98.59;95532.28;5010664;28;19909;-48
2022/11/14 11:04:35;;;;;;;;;;;13.90;69.00;;;9.09;98.54;95526.97;5026663;28;19915;-52
2022/11/14 11:07:07;;;;;;;;;;;13.90;69.00;;;9.15;98.42;95538.41;5030640;28;20398;-51
2022/11/14 11:12:52;;;;;;;;;;;13.90;69.10;;;9.18;98.77;95538.72;5010633;28;19936;-49
2022/11/14 11:15:38;;;;;;;;;;;13.90;69.00;;;9.20;99.45;95531.28;5012548;28;19947;-51
2022/11/14 11:18:30;;;;;;;;;;;14.00;69.10;;;9.24;99.42;95537.69;5010660;28;19970;-50
2022/11/14 11:21:15;;;;;;;;;;;14.10;69.00;;;9.25;100.00;95528.66;5016957;28;19916;-50
2022/11/14 11:23:51;;;;;;;;;;;14.20;68.90;;;9.31;100.00;95526.84;5010044;28;20275;-49
2022/11/14 11:26:31;;;;;;;;;;;14.30;68.80;;;9.31;100.00;95526.84;5028990;28;19915;-49
2022/11/14 11:29:13;;;;;;;;;;;14.40;68.80;;;9.34;100.00;95531.63;5010284;28;19963;-52
2022/11/14 11:31:54;;;;;;;;;;;14.40;68.70;;;9.43;100.00;95545.22;5025579;28;19908;-51
2022/11/14 11:34:33;;;;;;;;;;;14.50;68.80;;;9.43;100.00;95531.91;5029136;28;19974;-49
2022/11/14 11:37:18;;;;;;;;;;;14.50;68.70;;;9.51;100.00;95512.84;5013772;28;19908;-51
2022/11/14 11:39:54;;;;;;;;;;;14.60;68.60;;;9.57;100.00;95521.63;5013414;28;19915;-51
2022/11/14 11:42:50;;;;;;;;;;;14.70;68.40;;;9.67;100.00;95527.00;5029588;28;19916;-51
2022/11/14 11:45:19;;;;;;;;;;;14.80;68.30;;;9.77;100.00;95529.69;5025027;28;19920;-51
2022/11/14 11:48:00;;;;;;;;;;;14.90;68.30;;;9.84;100.00;95535.59;5010098;28;19920;-51